Time;durP1;ratioP1;P1;durP2;ratioP2;P2;SDS_P1;SDS_P2;PMS_P1;PMS_P2;Temp;Humidity;BMP_temperature;BMP_pressure;BME280_temperature;BME280_humidity;BME280_pressure;Samples;Min_cycle;Max_cycle;Signal;HPM_P1;HPM_P2
2022/05/11 00:01:49;;;;;;;20.30;11.18;;;;;;;11.86;100.00;95713.78;5046587;28;20041;-77
2022/05/11 00:04:15;;;;;;;22.02;11.75;;;;;;;11.93;100.00;95701.09;5047934;28;20049;-77
2022/05/11 00:06:41;;;;;;;19.95;11.00;;;;;;;11.81;100.00;95708.53;5046572;28;20161;-77
2022/05/11 00:09:11;;;;;;;21.27;11.48;;;;;;;11.88;100.00;95709.84;5042256;28;20510;-77
2022/05/11 00:11:36;;;;;;;20.92;10.57;;;;;;;11.90;100.00;95702.41;5040367;28;20041;-77
2022/05/11 00:14:02;;;;;;;17.63;10.43;;;;;;;11.85;100.00;95709.56;5041375;28;20635;-77
2022/05/11 00:16:29;;;;;;;17.63;10.52;;;;;;;11.81;100.00;95709.34;5050933;28;20048;-77
2022/05/11 00:18:55;;;;;;;19.08;11.38;;;;;;;11.75;100.00;95713.03;5050019;28;20033;-77
2022/05/11 00:21:21;;;;;;;19.58;10.82;;;;;;;11.75;100.00;95705.13;5050983;28;20045;-77
2022/05/11 00:23:47;;;;;;;19.25;11.07;;;;;;;11.84;100.00;95714.06;5051444;28;20418;-77
2022/05/11 00:26:12;;;;;;;19.33;11.30;;;;;;;11.77;100.00;95708.31;5033153;28;20136;-77
2022/05/11 00:28:38;;;;;;;20.50;10.10;;;;;;;11.81;100.00;95704.06;5050153;28;20490;-77
2022/05/11 00:31:04;;;;;;;23.63;10.10;;;;;;;11.90;100.00;95697.16;5049154;28;20044;-76
2022/05/11 00:33:30;;;;;;;19.52;10.25;;;;;;;11.85;100.00;95699.84;5047670;28;20072;-76
2022/05/11 00:35:56;;;;;;;17.77;10.07;;;;;;;11.80;100.00;95702.47;5050570;28;20037;-76
2022/05/11 00:38:24;;;;;;;16.05;9.85;;;;;;;11.63;100.00;95694.13;5049663;28;20588;-75
2022/05/11 00:40:54;;;;;;;19.45;10.70;;;;;;;11.67;100.00;95698.59;5050340;28;20045;-75
2022/05/11 00:43:32;;;;;;;19.27;10.82;;;;;;;11.52;100.00;95696.81;5050519;28;20045;-76
2022/05/11 00:46:15;;;;;;;19.42;10.43;;;;;;;11.44;100.00;95700.78;5050079;28;20452;-76
2022/05/11 00:51:33;;;;;;;17.98;10.10;;;;;;;11.35;100.00;95691.06;5038378;28;20071;-76
2022/05/11 00:53:59;;;;;;;20.38;11.10;;;;;;;11.35;100.00;95691.06;5049694;28;20504;-76
2022/05/11 00:56:25;;;;;;;20.40;10.55;;;;;;;11.31;100.00;95690.84;5049443;28;20090;-76
2022/05/11 00:58:56;;;;;;;17.55;10.13;;;;;;;11.21;100.00;95681.13;5050364;28;20041;-78
2022/05/11 01:01:23;;;;;;;20.65;10.35;;;;;;;11.24;100.00;95685.84;5049081;28;20041;-78
2022/05/11 01:04:00;;;;;;;17.90;10.23;;;;;;;11.14;100.00;95683.25;5051077;28;20029;-78
2022/05/11 01:06:27;;;;;;;17.25;10.05;;;;;;;11.13;100.00;95689.56;5050628;28;20068;-78
2022/05/11 01:08:53;;;;;;;19.85;10.45;;;;;;;11.13;100.00;95670.34;5051125;28;20045;-78
2022/05/11 01:11:19;;;;;;;15.57;9.80;;;;;;;11.12;100.00;95679.28;5049610;28;20037;-77
2022/05/11 01:13:46;;;;;;;19.10;9.93;;;;;;;11.13;100.00;95679.03;5050724;28;20041;-77
2022/05/11 01:16:12;;;;;;;17.25;10.05;;;;;;;11.12;100.00;95682.75;5031977;28;20049;-77
2022/05/11 01:18:40;;;;;;;21.38;10.30;;;;;;;11.10;100.00;95674.31;5042209;28;20094;-77
2022/05/11 01:21:07;;;;;;;18.00;10.23;;;;;;;11.11;100.00;95681.16;5047460;28;20041;-77
2022/05/11 01:23:38;;;;;;;18.63;11.15;;;;;;;11.08;100.00;95681.69;5049145;28;20045;-78
2022/05/11 01:26:05;;;;;;;17.38;10.07;;;;;;;11.02;100.00;95677.47;5043875;28;20041;-78
2022/05/11 01:28:31;;;;;;;16.63;9.98;;;;;;;10.99;100.00;95683.28;5039581;28;20033;-78
2022/05/11 01:31:03;;;;;;;17.80;9.95;;;;;;;10.92;100.00;95679.09;5041249;28;20049;-79
2022/05/11 01:33:30;;;;;;;20.27;10.57;;;;;;;10.92;100.00;95679.09;5033612;28;20037;-78
2022/05/11 01:36:25;;;;;;;19.55;9.57;;;;;;;10.92;100.00;95679.09;5050167;28;20041;-78
2022/05/11 01:38:52;;;;;;;;;;;;;;;10.89;100.00;95684.91;5051340;28;20056;-78
2022/05/11 01:41:32;;;;;;;14.45;9.13;;;;;;;10.91;100.00;95677.50;5046111;28;19935;-78
2022/05/11 01:43:59;;;;;;;16.55;9.60;;;;;;;10.77;100.00;95676.47;5048293;28;20045;-78
2022/05/11 01:46:25;;;;;;;17.85;9.63;;;;;;;10.85;100.00;95683.06;5049647;28;20829;-77
2022/05/11 01:48:51;;;;;;;15.27;9.13;;;;;;;10.78;100.00;95678.06;5048475;28;20117;-77
2022/05/11 01:51:19;;;;;;;19.95;9.93;;;;;;;10.77;100.00;95676.47;5049965;28;20801;-77
2022/05/11 01:53:45;;;;;;;15.30;9.18;;;;;;;10.78;100.00;95678.06;5050784;28;20057;-77
2022/05/11 01:56:16;;;;;;;17.05;9.00;;;;;;;10.89;100.00;95671.72;5049615;28;20497;-77
2022/05/11 01:58:42;;;;;;;17.08;9.07;;;;;;;10.86;100.00;95669.63;5048970;28;20120;-78
2022/05/11 02:01:08;;;;;;;15.45;8.35;;;;;;;10.95;100.00;95676.97;5048789;28;20056;-77
2022/05/11 02:03:34;;;;;;;15.23;8.50;;;;;;;10.94;100.00;95675.41;5028694;28;20044;-77
2022/05/11 02:08:44;;;;;;;15.80;8.65;;;;;;;11.05;100.00;95666.44;5049089;28;20045;-77
2022/05/11 02:11:12;;;;;;;15.48;9.00;;;;;;;10.95;100.00;95671.69;5050929;28;20041;-77
2022/05/11 02:13:38;;;;;;;19.73;8.95;;;;;;;10.90;100.00;95667.25;5050684;28;20041;-77
2022/05/11 02:16:04;;;;;;;14.45;8.23;;;;;;;10.81;100.00;95666.22;5049298;28;20410;-78
2022/05/11 02:18:30;;;;;;;14.98;8.80;;;;;;;10.78;100.00;95662.28;5031415;28;20045;-78
2022/05/11 02:20:56;;;;;;;15.43;8.77;;;;;;;10.73;100.00;95662.28;5032143;28;20044;-78
2022/05/11 02:23:23;;;;;;;16.10;9.20;;;;;;;10.81;100.00;95661.72;5049386;28;20429;-80
2022/05/11 02:25:50;;;;;;;13.35;8.80;;;;;;;10.83;100.00;95664.91;5031028;28;20091;-78
2022/05/11 02:28:17;;;;;;;17.25;8.50;;;;;;;10.84;100.00;95665.69;5040857;28;20048;-78
2022/05/11 02:30:45;;;;;;;13.88;8.48;;;;;;;10.82;100.00;95663.31;5049126;28;20044;-78
2022/05/11 02:33:12;;;;;;;14.48;8.70;;;;;;;10.87;100.00;95659.88;5030950;28;20123;-77
2022/05/11 02:35:39;;;;;;;16.63;8.85;;;;;;;10.86;100.00;95667.00;5047658;28;20037;-78
2022/05/11 02:38:14;;;;;;;13.63;8.30;;;;;;;10.90;100.00;95660.16;5049175;28;20041;-79
2022/05/11 02:40:41;;;;;;;13.43;7.97;;;;;;;10.91;100.00;95664.34;5048463;28;20053;-77
2022/05/11 02:43:10;;;;;;;12.90;7.78;;;;;;;10.88;100.00;95667.50;5048634;28;20044;-77
2022/05/11 02:45:37;;;;;;;17.10;8.63;;;;;;;10.86;100.00;95664.38;5048401;28;20124;-77
2022/05/11 02:48:03;;;;;;;14.43;7.97;;;;;;;10.76;100.00;95659.13;5048099;28;20041;-78
2022/05/11 02:50:38;;;;;;;19.33;8.90;;;;;;;10.73;100.00;95664.91;5049019;28;20517;-79
2022/05/11 02:53:09;;;;;;;15.85;8.82;;;;;;;10.82;100.00;95668.59;5049831;28;20135;-79
2022/05/11 02:55:36;;;;;;;14.95;8.38;;;;;;;10.74;100.00;95663.84;5048004;28;20107;-78
2022/05/11 02:58:03;;;;;;;14.60;8.45;;;;;;;10.68;100.00;95664.94;5049349;28;20052;-78
2022/05/11 03:00:29;;;;;;;14.35;8.05;;;;;;;10.57;100.00;95666.78;5048702;28;20048;-80
2022/05/11 03:02:55;;;;;;;13.10;7.75;;;;;;;10.61;100.00;95657.28;5030931;28;20040;-79
2022/05/11 03:05:21;;;;;;;12.77;7.97;;;;;;;10.63;100.00;95670.19;5049362;28;20048;-77
2022/05/11 03:07:46;;;;;;;13.10;7.80;;;;;;;10.52;100.00;95667.56;5044583;28;20457;-77
2022/05/11 03:10:12;;;;;;;15.02;8.02;;;;;;;10.48;100.00;95663.09;5040974;28;20045;-77
2022/05/11 03:12:38;;;;;;;13.80;7.93;;;;;;;10.43;100.00;95660.47;5049490;28;20045;-78
2022/05/11 03:15:05;;;;;;;13.63;7.57;;;;;;;10.39;100.00;95665.47;5046325;28;20037;-77
2022/05/11 03:17:31;;;;;;;12.60;7.70;;;;;;;10.43;100.00;95666.53;5051199;28;20067;-77
2022/05/11 03:19:56;;;;;;;13.55;7.95;;;;;;;10.40;100.00;95672.31;5048673;28;20057;-77
2022/05/11 03:22:22;;;;;;;14.10;7.72;;;;;;;10.33;100.00;95667.28;5049866;28;20045;-77
2022/05/11 03:24:47;;;;;;;14.25;7.63;;;;;;;10.26;100.00;95665.97;5048485;28;20037;-77
2022/05/11 03:27:13;;;;;;;11.80;7.45;;;;;;;10.32;100.00;95675.44;5049499;28;20106;-77
2022/05/11 03:29:39;;;;;;;14.63;8.32;;;;;;;10.35;100.00;95674.94;5027495;28;20041;-77
2022/05/11 03:34:57;;;;;;;14.43;7.75;;;;;;;10.45;100.00;95669.69;5027166;28;20590;-77
2022/05/11 03:37:23;;;;;;;12.63;7.28;;;;;;;10.42;100.00;95675.47;5045676;28;20048;-77
2022/05/11 03:39:49;;;;;;;13.43;6.82;;;;;;;10.65;100.00;95673.34;5047218;28;20120;-77
2022/05/11 03:42:18;;;;;;;15.90;7.15;;;;;;;10.84;100.00;95671.72;5048876;28;20120;-77
2022/05/11 03:44:44;;;;;;;12.18;7.05;;;;;;;10.96;100.00;95673.28;5031171;28;20048;-78
2022/05/11 03:47:09;;;;;;;12.65;7.30;;;;;;;10.97;100.00;95669.59;5029887;28;20037;-78
2022/05/11 03:49:35;;;;;;;15.18;7.28;;;;;;;11.03;100.00;95673.78;5046500;28;20037;-79
2022/05/11 03:52:02;;;;;;;12.13;6.45;;;;;;;11.44;100.00;95668.38;5050585;28;20108;-78
2022/05/11 03:54:27;;;;;;;16.15;7.20;;;;;;;11.40;100.00;95667.34;5027100;28;20173;-78
2022/05/11 03:56:53;;;;;;;13.02;6.60;;;;;;;11.56;99.90;95674.13;5052161;28;20068;-78
2022/05/11 03:59:19;;;;;;;13.70;6.88;;;;;;;11.47;100.00;95670.47;5051622;28;20460;-79
2022/05/11 04:01:45;;;;;;;14.55;6.50;;;;;;;11.60;99.90;95677.78;5051081;28;20037;-78
2022/05/11 04:04:11;;;;;;;11.07;6.63;;;;;;;11.48;100.00;95671.25;5048125;28;20060;-78
2022/05/11 04:06:36;;;;;;;13.30;7.00;;;;;;;11.55;100.00;95677.84;5047760;28;20045;-77
2022/05/11 04:09:02;;;;;;;9.63;6.40;;;;;;;11.63;99.66;95678.31;5041671;28;20106;-78
2022/05/11 04:11:29;;;;;;;11.40;6.82;;;;;;;11.61;99.00;95673.31;5052577;28;20052;-79
2022/05/11 04:13:56;;;;;;;11.48;6.63;;;;;;;11.56;100.00;95671.47;5033680;28;20041;-79
2022/05/11 04:16:22;;;;;;;13.02;6.93;;;;;;;11.48;100.00;95674.69;5052174;28;20107;-80
2022/05/11 04:18:48;;;;;;;13.00;6.38;;;;;;;11.54;99.76;95672.84;5052212;28;20044;-79
2022/05/11 04:21:14;;;;;;;12.10;6.28;;;;;;;11.85;95.19;95662.91;5054467;28;20043;-79
2022/05/11 04:23:43;;;;;;;14.07;6.18;;;;;;;12.08;92.39;95658.03;5055334;28;20123;-79
2022/05/11 04:26:11;;;;;;;10.40;6.25;;;;;;;12.24;91.42;95669.25;5053968;28;20045;-79
2022/05/11 04:28:38;;;;;;;10.65;6.53;;;;;;;12.30;89.88;95653.13;5036995;28;20099;-79
2022/05/11 04:31:06;;;;;;;13.55;6.40;;;;;;;12.44;89.04;95657.75;5062256;28;20029;-79
2022/05/11 04:33:32;;;;;;;13.15;6.70;;;;;;;12.42;90.29;95659.88;5061343;28;20037;-78
2022/05/11 04:35:58;;;;;;;13.35;6.18;;;;;;;12.70;87.22;95668.09;5075600;28;20029;-78
2022/05/11 04:38:23;;;;;;;12.65;6.32;;;;;;;12.80;85.76;95665.34;5055876;28;20040;-77
2022/05/11 04:40:49;;;;;;;10.95;6.00;;;;;;;12.84;85.39;95666.34;5060569;28;20048;-77
2022/05/11 04:43:15;;;;;;;11.43;5.82;;;;;;;12.91;85.23;95669.47;5077785;28;20040;-78
2022/05/11 04:45:43;;;;;;;13.73;5.68;;;;;;;12.95;84.66;95667.84;5080010;28;20025;-77
2022/05/11 04:48:09;;;;;;;13.90;6.22;;;;;;;13.22;83.19;95669.13;5062691;28;20025;-77
2022/05/11 04:50:38;;;;;;;10.60;6.05;;;;;;;13.23;82.62;95673.38;5080371;28;20029;-76
2022/05/11 04:53:04;;;;;;;11.35;6.00;;;;;;;13.32;82.60;95678.81;5080841;28;20025;-76
2022/05/11 04:55:29;;;;;;;9.68;5.68;;;;;;;13.36;83.03;95681.69;5072139;28;20430;-77
2022/05/11 04:57:55;;;;;;;9.98;5.90;;;;;;;13.54;81.36;95683.59;5040266;28;20043;-78
2022/05/11 05:00:20;;;;;;;9.45;5.97;;;;;;;13.58;81.04;95689.88;5041124;28;20514;-79
2022/05/11 05:02:46;;;;;;;15.50;5.90;;;;;;;13.62;80.80;95680.31;5046437;28;20044;-78
2022/05/11 05:05:12;;;;;;;12.20;6.13;;;;;;;13.64;82.09;95688.75;5041479;28;20047;-78
2022/05/11 05:07:39;;;;;;;11.43;5.97;;;;;;;13.68;81.50;95679.19;5052293;28;20044;-77
2022/05/11 05:10:07;;;;;;;13.32;6.40;;;;;;;13.91;80.25;95687.34;5050625;28;20063;-78
2022/05/11 05:12:33;;;;;;;9.32;6.13;;;;;;;13.94;79.53;95675.41;5052343;28;20045;-77
2022/05/11 05:14:59;;;;;;;8.40;5.60;;;;;;;14.14;78.00;95676.97;5051801;28;20047;-78
2022/05/11 05:17:25;;;;;;;12.07;6.03;;;;;;;14.26;78.12;95682.59;5050885;28;20494;-80
2022/05/11 05:19:51;;;;;;;13.75;5.80;;;;;;;14.38;76.34;95682.94;5049547;28;20041;-79
2022/05/11 05:22:17;;;;;;;9.60;5.22;;;;;;;14.52;76.11;95679.56;5045401;28;20874;-79
2022/05/11 05:24:44;;;;;;;9.90;5.82;;;;;;;14.68;75.83;95688.88;5049358;28;20068;-80
2022/05/11 05:27:12;;;;;;;12.27;5.82;;;;;;;14.73;75.06;95691.41;5051446;28;20037;-79
2022/05/11 05:32:22;;;;;;;11.73;5.00;;;;;;;15.07;73.22;95692.94;5051068;28;20041;-78
2022/05/11 05:34:47;;;;;;;10.02;5.30;;;;;;;15.16;73.51;95694.94;5050840;28;20037;-78
2022/05/11 05:37:16;;;;;;;13.73;5.93;;;;;;;15.22;73.41;95696.38;5050945;28;20044;-77
2022/05/11 05:39:44;;;;;;;11.52;6.00;;;;;;;15.42;72.41;95701.28;5040457;28;20045;-77
2022/05/11 05:42:19;;;;;;;12.77;5.65;;;;;;;15.47;71.98;95697.75;5049484;28;20048;-77
2022/05/11 05:44:45;;;;;;;9.55;5.60;;;;;;;15.54;72.50;95702.66;5050124;28;20033;-77
2022/05/11 05:47:11;;;;;;;9.60;5.82;;;;;;;15.57;71.14;95702.06;5046621;28;20076;-77
2022/05/11 05:49:37;;;;;;;8.70;5.38;;;;;;;15.76;71.58;95694.78;5050089;28;20091;-77
2022/05/11 05:52:04;;;;;;;9.35;5.80;;;;;;;15.69;72.91;95699.72;5050306;28;20040;-78
2022/05/11 05:54:33;;;;;;;13.32;5.50;;;;;;;15.84;71.07;95705.81;5032377;28;20162;-78
2022/05/11 05:56:59;;;;;;;11.73;5.28;;;;;;;16.17;68.56;95708.28;5049631;28;20045;-78
2022/05/11 05:59:25;;;;;;;11.30;5.53;;;;;;;16.32;68.21;95709.78;5040149;28;20041;-77
2022/05/11 06:01:51;;;;;;;11.95;5.90;;;;;;;16.39;68.29;95695.03;5047242;28;20041;-78
2022/05/11 06:04:16;;;;;;;10.20;5.40;;;;;;;16.42;67.83;95705.03;5050217;28;20172;-80
2022/05/11 06:06:42;;;;;;;8.63;5.30;;;;;;;16.60;66.82;95694.53;5031770;28;20045;-80
2022/05/11 06:09:09;;;;;;;9.65;5.55;;;;;;;16.81;63.64;95705.47;5048725;28;20048;-79
2022/05/11 06:11:38;;;;;;;10.43;5.72;;;;;;;16.79;64.46;95687.16;5045185;28;20537;-80
2022/05/11 06:14:05;;;;;;;8.18;5.43;;;;;;;16.81;64.11;95694.81;5050193;28;20051;-82
2022/05/11 06:16:31;;;;;;;16.80;5.38;;;;;;;16.92;63.86;95700.69;5053083;28;20116;-83
2022/05/11 06:18:57;;;;;;;10.00;5.43;;;;;;;17.13;62.76;95691.09;5029164;28;20138;-79
2022/05/11 06:21:24;;;;;;;8.80;5.68;;;;;;;17.09;62.52;95690.13;5047662;28;20037;-77
2022/05/11 06:23:50;;;;;;;7.57;4.78;;;;;;;17.18;62.11;95695.47;5049862;28;20037;-80
2022/05/11 06:26:16;;;;;;;8.98;5.35;;;;;;;17.23;62.81;95689.25;5047181;28;20112;-78
2022/05/11 06:28:44;;;;;;;8.02;4.97;;;;;;;17.30;62.64;95700.25;5049738;28;20585;-78
2022/05/11 06:31:10;;;;;;;9.90;5.30;;;;;;;17.48;61.79;95701.06;5030963;28;20116;-77
2022/05/11 06:33:36;;;;;;;10.93;5.63;;;;;;;17.51;62.49;95694.34;5032146;28;20045;-79
2022/05/11 06:36:06;;;;;;;9.73;5.38;;;;;;;17.61;61.63;95700.19;5048202;28;20054;-80
2022/05/11 06:38:32;;;;;;;10.75;4.80;;;;;;;17.70;61.28;95710.84;5048224;28;20580;-78
2022/05/11 06:41:05;;;;;;;22.10;5.60;;;;;;;17.79;60.69;95708.97;5047064;28;20049;-80
2022/05/11 06:43:31;;;;;;;11.25;5.53;;;;;;;17.89;61.19;95709.78;5049832;28;20049;-78
2022/05/11 06:45:57;;;;;;;10.38;5.28;;;;;;;17.97;61.55;95707.16;5045473;28;20189;-78
2022/05/11 06:48:22;;;;;;;9.13;5.32;;;;;;;18.13;60.55;95710.16;5048322;28;20048;-75
2022/05/11 06:50:48;;;;;;;10.35;5.22;;;;;;;18.26;59.18;95702.31;5047688;28;20049;-75
2022/05/11 06:53:14;;;;;;;12.27;5.50;;;;;;;18.29;59.91;95701.69;5047477;28;20425;-74
2022/05/11 06:59:20;;;;;;;10.48;6.07;;;;;;;18.10;61.00;95705.44;5044919;28;20048;-73
2022/05/11 07:01:14;;;;;;;9.88;5.97;;;;;;;18.36;59.85;95707.34;5042043;28;20041;-75
2022/05/11 07:03:40;;;;;;;9.82;5.70;;;;;;;18.37;59.64;95698.22;5041981;28;20037;-78
2022/05/11 07:06:07;;;;;;;8.75;5.43;;;;;;;18.31;59.53;95692.28;5039283;28;20041;-77
2022/05/11 07:08:44;;;;;;;14.73;6.43;;;;;;;18.47;59.62;95708.56;5047448;28;20102;-79
2022/05/11 07:13:55;;;;;;;;;;;;;;;18.59;60.95;95699.94;5057138;28;20060;-78
2022/05/11 07:16:21;;;;;;;10.02;6.55;;;;;;;18.71;60.32;95699.28;5053501;28;19971;-78
2022/05/11 07:18:48;;;;;;;10.23;6.15;;;;;;;18.85;60.20;95701.78;5052760;28;20052;-78
2022/05/11 07:21:13;;;;;;;13.88;6.25;;;;;;;18.92;61.27;95698.63;5050019;28;20072;-78
2022/05/11 07:23:39;;;;;;;10.57;6.35;;;;;;;18.97;60.92;95698.47;5032277;28;20449;-83
2022/05/11 07:26:04;;;;;;;11.63;6.68;;;;;;;18.92;61.45;95698.63;5048372;28;20064;-78
2022/05/11 07:28:30;;;;;;;14.13;6.85;;;;;;;19.06;60.84;95696.56;5051858;28;20055;-79
2022/05/11 07:30:55;;;;;;;9.95;7.03;;;;;;;19.02;60.71;95690.28;5051180;28;20045;-80
2022/05/11 07:33:21;;;;;;;10.25;6.82;;;;;;;19.02;60.50;95690.28;5042052;28;20041;-78
2022/05/11 07:35:47;;;;;;;12.77;7.07;;;;;;;19.07;61.81;95692.03;5057954;28;20041;-81
2022/05/11 07:38:17;;;;;;;13.45;7.07;;;;;;;19.29;59.77;95691.75;5053696;28;20452;-80
2022/05/11 07:40:43;;;;;;;10.48;6.65;;;;;;;19.37;60.27;95690.16;5052028;28;20048;-81
2022/05/11 07:43:11;;;;;;;15.60;6.95;;;;;;;19.35;59.87;95687.03;5054098;28;20037;-78
2022/05/11 07:45:38;;;;;;;12.82;6.95;;;;;;;19.53;60.85;95688.50;5047717;28;20041;-78
2022/05/11 07:48:05;;;;;;;13.32;7.03;;;;;;;19.48;59.59;95686.03;5052363;28;20726;-79
2022/05/11 07:50:31;;;;;;;10.13;6.82;;;;;;;19.56;61.04;95682.53;5053693;28;20045;-81
2022/05/11 07:52:57;;;;;;;12.02;7.18;;;;;;;19.76;58.90;95680.22;5032511;28;20053;-76
2022/05/11 07:55:27;;;;;;;14.23;7.50;;;;;;;19.54;60.58;95679.41;5052727;28;20063;-78
2022/05/11 08:00:38;;;;;;;10.85;7.25;;;;;;;19.76;60.87;95674.88;5051242;28;20513;-77
2022/05/11 08:03:04;;;;;;;13.02;6.80;;;;;;;19.81;60.85;95677.41;5026626;28;20041;-79
2022/05/11 08:05:32;;;;;;;13.93;7.65;;;;;;;19.86;61.55;95677.19;5045995;28;20042;-79
2022/05/11 08:08:01;;;;;;;15.15;7.68;;;;;;;20.03;58.84;95676.28;5050454;28;20045;-78
2022/05/11 08:10:36;;;;;;;15.90;7.93;;;;;;;19.86;61.28;95685.19;5050707;28;20408;-79
2022/05/11 08:13:05;;;;;;;11.93;8.00;;;;;;;19.92;60.29;95682.34;5051523;28;20029;-78
2022/05/11 08:15:32;;;;;;;15.07;7.50;;;;;;;20.00;60.55;95668.94;5046363;28;20045;-78
2022/05/11 08:17:59;;;;;;;12.20;7.20;;;;;;;20.22;59.77;95681.16;5049412;28;20060;-78
2022/05/11 08:20:32;;;;;;;12.63;6.93;;;;;;;20.45;56.98;95672.81;5034213;28;20045;-78
2022/05/11 08:22:59;;;;;;;12.40;7.35;;;;;;;20.36;59.45;95675.56;5053299;28;20064;-78
2022/05/11 08:25:27;;;;;;;18.20;7.40;;;;;;;20.65;56.85;95678.44;5051615;28;20112;-78
2022/05/11 08:27:55;;;;;;;14.02;7.38;;;;;;;20.73;56.17;95672.25;5050869;28;20048;-79
2022/05/11 08:33:23;;;;;;;9.65;7.05;;;;;;;20.80;57.14;95667.13;5053285;28;20552;-78
2022/05/11 08:36:01;;;;;;;12.02;6.75;;;;;;;20.92;56.11;95669.84;5052281;28;20033;-79
2022/05/11 08:38:30;;;;;;;12.30;7.15;;;;;;;21.25;55.09;95666.31;5044661;28;20050;-78
2022/05/11 08:41:26;;;;;;;12.77;7.07;;;;;;;21.38;53.64;95660.97;5041609;28;20910;-79
2022/05/11 08:43:54;;;;;;;15.43;6.88;;;;;;;21.28;53.43;95662.97;5033539;28;20065;-78
2022/05/11 08:46:38;;;;;;;12.57;6.60;;;;;;;21.27;53.42;95663.28;5048889;28;20563;-78
2022/05/11 08:49:22;;;;;;;12.20;6.47;;;;;;;21.16;53.44;95665.66;5049291;28;20045;-78
2022/05/11 08:51:57;;;;;;;13.00;6.65;;;;;;;21.32;52.32;95664.97;5031593;28;20060;-77
2022/05/11 08:54:38;;;;;;;11.35;6.75;;;;;;;21.51;53.20;95659.88;5045749;28;20412;-78
2022/05/11 08:57:10;;;;;;;11.40;6.68;;;;;;;21.66;51.43;95662.97;5047188;28;20041;-78
2022/05/11 08:59:37;;;;;;;10.88;6.43;;;;;;;21.62;52.25;95663.66;5034046;28;20044;-78
2022/05/11 09:02:17;;;;;;;12.38;6.32;;;;;;;21.38;53.38;95652.94;5050205;28;20037;-77
2022/05/11 09:04:51;;;;;;;9.68;6.47;;;;;;;21.67;52.85;95661.88;5037871;28;20072;-77
2022/05/11 09:07:17;;;;;;;13.30;6.63;;;;;;;21.85;50.78;95655.13;5037893;28;20510;-77
2022/05/11 09:09:43;;;;;;;15.75;7.28;;;;;;;22.01;49.70;95663.25;5035656;28;20072;-76
2022/05/11 09:12:11;;;;;;;13.73;6.82;;;;;;;21.97;50.25;95655.09;5032516;28;20045;-76
2022/05/11 09:14:42;;;;;;;9.25;6.50;;;;;;;21.95;50.22;95648.50;5034789;28;20052;-77
2022/05/11 09:17:25;;;;;;;9.65;6.20;;;;;;;21.92;50.00;95654.53;5031852;28;20053;-77
2022/05/11 09:20:06;;;;;;;11.90;6.57;;;;;;;21.89;50.97;95656.00;5035406;28;20217;-77
2022/05/11 09:22:38;;;;;;;8.75;6.15;;;;;;;21.91;49.45;95653.78;5030418;28;20906;-77
2022/05/11 09:25:27;;;;;;;11.57;6.20;;;;;;;21.90;51.15;95652.22;5033108;28;20040;-77
2022/05/11 09:28:13;;;;;;;10.43;6.07;;;;;;;22.23;48.58;95651.22;5034252;28;20041;-79
2022/05/11 09:30:40;;;;;;;9.15;5.95;;;;;;;22.43;47.90;95651.41;5023575;28;20120;-77
2022/05/11 09:33:16;;;;;;;8.45;5.82;;;;;;;22.30;46.82;95648.72;5045351;28;20045;-78
2022/05/11 09:35:44;;;;;;;10.90;6.45;;;;;;;22.59;47.30;95646.84;5050784;28;20041;-78
2022/05/11 09:38:21;;;;;;;13.27;6.97;;;;;;;22.35;48.87;95650.41;5046033;28;20120;-78
2022/05/11 09:40:56;;;;;;;12.50;6.60;;;;;;;22.18;47.78;95646.09;5046348;28;20628;-80
2022/05/11 09:43:29;;;;;;;10.73;6.40;;;;;;;22.16;49.21;95637.63;5041681;28;20049;-77
2022/05/11 09:45:55;;;;;;;9.18;5.95;;;;;;;22.34;47.55;95637.34;5043963;28;20040;-78
2022/05/11 09:48:30;;;;;;;11.85;6.00;;;;;;;22.65;46.59;95637.41;5050097;28;20053;-78
2022/05/11 09:51:17;;;;;;;11.60;6.45;;;;;;;22.44;47.06;95644.91;5033432;28;20045;-78
2022/05/11 09:53:55;;;;;;;8.32;5.60;;;;;;;22.52;46.55;95643.97;5051938;28;20037;-77
2022/05/11 09:56:31;;;;;;;11.05;5.68;;;;;;;22.53;46.83;95624.09;5045697;28;20042;-78
2022/05/11 09:58:56;;;;;;;10.35;5.30;;;;;;;22.83;46.40;95631.75;5043667;28;20124;-76
2022/05/11 10:01:26;;;;;;;10.60;6.53;;;;;;;22.99;46.77;95634.44;5045966;28;20048;-77
2022/05/11 10:03:57;;;;;;;10.35;5.82;;;;;;;23.16;46.47;95636.00;5042353;28;20422;-78
2022/05/11 10:06:24;;;;;;;8.90;6.15;;;;;;;23.42;45.45;95624.72;5038030;28;20414;-80
2022/05/11 10:08:52;;;;;;;9.05;5.60;;;;;;;23.57;43.13;95633.84;5050247;28;20041;-77
2022/05/11 10:11:24;;;;;;;10.07;5.70;;;;;;;23.77;44.35;95628.53;5055705;28;20060;-77
2022/05/11 10:22:38;;;;;;;10.13;5.60;;;;;;;24.54;41.38;95611.63;5052209;28;20102;-80
2022/05/11 10:25:10;;;;;;;9.45;5.40;;;;;;;24.68;40.37;95616.50;5050331;28;20075;-75
2022/05/11 10:27:43;;;;;;;14.27;5.93;;;;;;;24.72;40.26;95606.59;5051419;28;20095;-79
2022/05/11 10:30:28;;;;;;;12.30;5.65;;;;;;;25.23;40.10;95610.09;5054315;28;20526;-79
2022/05/11 10:33:12;;;;;;;13.15;5.60;;;;;;;25.55;39.00;95607.09;5054884;28;20064;-80
2022/05/11 10:35:52;;;;;;;8.25;5.80;;;;;;;25.50;38.03;95610.09;5054537;28;20045;-78
2022/05/11 10:38:36;;;;;;;11.90;5.90;;;;;;;25.47;38.06;95610.81;5044667;28;20059;-80
2022/05/11 10:41:07;;;;;;;;;;;;;;;25.97;38.29;95606.09;5049568;28;20044;-77
2022/05/11 10:44:02;;;;;;;8.45;5.75;;;;;;;26.51;37.09;95600.56;5052676;28;19924;-78
2022/05/11 10:46:36;;;;;;;11.15;5.88;;;;;;;26.89;34.99;95593.19;5050925;28;20045;-76
2022/05/11 10:49:10;;;;;;;;;;;;;;;27.02;35.62;95602.56;5047160;28;20052;-78
2022/05/11 10:51:36;;;;;;;;;;;;;;;26.66;35.38;95594.13;5043695;28;19931;-77
2022/05/11 10:54:17;;;;;;;9.82;5.70;;;;;;;26.66;35.61;95591.44;5061259;28;19964;-81
2022/05/11 10:56:52;;;;;;;8.65;5.40;;;;;;;27.02;34.26;95586.34;5048354;28;20045;-80
2022/05/11 10:59:30;;;;;;;9.10;5.10;;;;;;;27.01;34.94;95587.53;5023297;28;20493;-78
2022/05/11 11:01:56;;;;;;;10.73;5.35;;;;;;;27.27;34.30;95577.69;5049664;28;20041;-79
2022/05/11 11:04:56;;;;;;;8.80;5.03;;;;;;;27.53;32.97;95575.91;5034486;28;20403;-77
2022/05/11 11:07:33;;;;;;;9.75;5.30;;;;;;;28.00;32.82;95574.22;5033412;28;20041;-81
2022/05/11 11:10:23;;;;;;;7.78;4.90;;;;;;;28.35;32.82;95576.25;5049429;28;20045;-80
2022/05/11 11:13:22;;;;;;;9.73;4.90;;;;;;;28.09;31.31;95563.81;5031490;28;20037;-81
2022/05/11 11:15:50;;;;;;;10.05;4.95;;;;;;;28.51;29.91;95573.19;5050144;28;20116;-78
2022/05/11 11:18:22;;;;;;;7.15;4.70;;;;;;;28.58;29.62;95566.25;5050306;28;20041;-86
2022/05/11 11:20:48;;;;;;;9.68;4.70;;;;;;;28.23;30.83;95567.72;5051974;28;20067;-79
2022/05/11 11:23:17;;;;;;;12.60;4.90;;;;;;;28.78;29.99;95561.25;5033500;28;20041;-79
2022/05/11 11:25:46;;;;;;;7.60;5.22;;;;;;;28.75;28.75;95553.88;5024950;28;20067;-79
2022/05/11 11:28:15;;;;;;;8.93;5.00;;;;;;;29.44;28.33;95549.97;5057228;28;20044;-81
2022/05/11 11:31:04;;;;;;;9.77;4.72;;;;;;;29.61;29.49;95547.59;5059794;28;20395;-80
2022/05/11 11:33:35;;;;;;;9.85;4.80;;;;;;;29.63;28.02;95546.03;5029213;28;20057;-78
2022/05/11 11:36:18;;;;;;;8.10;4.43;;;;;;;29.55;28.15;95539.88;5052828;28;20041;-80
2022/05/11 11:38:47;;;;;;;;;;;;;;;29.50;27.84;95537.56;5049313;28;20045;-77
2022/05/11 11:41:45;;;;;;;11.98;4.70;;;;;;;29.70;26.99;95531.69;5029093;28;20393;-77
2022/05/11 11:44:20;;;;;;;9.05;4.40;;;;;;;29.73;27.16;95533.63;5015617;28;20059;-76
2022/05/11 11:46:47;;;;;;;10.05;4.45;;;;;;;29.68;27.17;95542.16;5050525;28;20041;-76
2022/05/11 11:49:19;;;;;;;8.77;4.35;;;;;;;30.21;26.93;95527.59;5030987;28;20045;-76
2022/05/11 11:51:50;;;;;;;9.43;5.00;;;;;;;28.88;27.18;95524.47;5050100;28;20067;-77
2022/05/11 11:54:37;;;;;;;8.35;4.65;;;;;;;29.51;27.17;95528.28;5053497;28;20045;-78
2022/05/11 11:57:25;;;;;;;9.07;4.30;;;;;;;30.17;27.75;95513.28;5047262;28;20048;-76
2022/05/11 11:59:56;;;;;;;10.23;4.07;;;;;;;30.37;26.29;95518.16;5044516;28;20044;-78
2022/05/11 12:02:40;;;;;;;5.50;4.30;;;;;;;30.70;25.03;95510.56;5028905;28;20037;-79
2022/05/11 12:05:27;;;;;;;8.15;4.07;;;;;;;30.50;25.43;95513.84;5047580;28;20044;-79
2022/05/11 12:16:53;;;;;;;8.15;4.00;;;;;;;31.11;24.86;95490.84;5052311;28;20033;-77